createdAt,value
2024-05-09T00:06:22.258Z,2.27
2024-05-09T00:16:28.397Z,2.14
2024-05-09T00:26:34.573Z,2.64
2024-05-09T00:36:40.693Z,2.34
2024-05-09T00:46:46.831Z,2.39
2024-05-09T00:56:52.960Z,2.14
2024-05-09T01:06:59.096Z,2.54
2024-05-09T01:17:05.251Z,2.85
2024-05-09T01:27:11.388Z,2.24
2024-05-09T01:37:17.512Z,2.4
2024-05-09T01:47:23.734Z,2.56
2024-05-09T01:57:29.799Z,2.19
2024-05-09T02:07:35.926Z,2.25
2024-05-09T02:17:42.202Z,2
2024-05-09T02:27:48.214Z,2.54
2024-05-09T02:37:54.365Z,2.48
2024-05-09T02:48:01.251Z,2.16
2024-05-09T02:58:06.642Z,1.8
2024-05-09T03:08:13.013Z,2.25
2024-05-09T03:18:18.972Z,2.27
2024-05-09T03:28:25.073Z,2.11
2024-05-09T03:38:31.260Z,2.01
2024-05-09T03:48:37.407Z,2.46
2024-05-09T03:58:43.480Z,2.46
2024-05-09T04:08:49.612Z,2
2024-05-09T04:18:55.798Z,2.16
2024-05-09T04:29:01.911Z,2.66
2024-05-09T04:39:08.033Z,2.33
2024-05-09T04:49:14.361Z,2.24
2024-05-09T04:59:20.337Z,2.36
2024-05-09T05:09:26.458Z,2.27
2024-05-09T05:19:32.797Z,2.69
2024-05-09T05:29:38.801Z,2.18
2024-05-09T05:39:52.033Z,2.36
2024-05-09T05:49:58.226Z,1.98
2024-05-09T06:00:07.223Z,2.52
2024-05-09T06:10:14.203Z,2.37
2024-05-09T06:20:20.194Z,2.17
2024-05-09T06:30:26.108Z,2.21
2024-05-09T06:40:34.345Z,2.49
2024-05-09T06:50:37.201Z,2.8
2024-05-09T07:00:41.923Z,3.08
2024-05-09T07:10:47.468Z,2.59
2024-05-09T07:20:53.433Z,6.16
2024-05-09T07:30:59.573Z,4.08
2024-05-09T07:41:05.724Z,3.62
2024-05-09T08:01:18.132Z,3.71
2024-05-09T08:11:24.282Z,3.97
2024-05-09T08:21:30.314Z,3.97
2024-05-09T08:31:36.412Z,3.73
2024-05-09T08:41:42.545Z,4.75
2024-05-09T08:51:48.722Z,4.31
2024-05-09T09:01:54.887Z,4.9
2024-05-09T09:12:01.000Z,6.06
2024-05-09T09:22:07.186Z,5.89
2024-05-09T09:32:13.268Z,5.57
2024-05-09T09:42:19.399Z,4.65
2024-05-09T09:52:25.568Z,6.52
2024-05-09T10:02:31.802Z,6.35
2024-05-09T10:12:37.854Z,7.13
2024-05-09T10:22:43.939Z,5.59
2024-05-09T10:32:50.133Z,6.34
2024-05-09T10:42:56.296Z,6.19
2024-05-09T10:53:02.353Z,5.86
2024-05-09T11:03:08.535Z,6.17
2024-05-09T11:13:14.701Z,6.3
2024-05-09T11:23:20.795Z,6.3
2024-05-09T11:33:26.915Z,8.8
2024-05-09T11:43:33.203Z,6.62
2024-05-09T11:53:39.214Z,5.55
2024-05-09T12:03:45.527Z,5.13
2024-05-09T12:13:51.478Z,6.3
2024-05-09T12:23:57.617Z,5.06
2024-05-09T12:34:03.839Z,4.82
2024-05-09T12:44:09.900Z,4.38
2024-05-09T12:54:16.050Z,4.01
2024-05-09T13:04:22.250Z,3.75
2024-05-09T13:14:28.323Z,3.26
2024-05-09T13:24:34.490Z,3.31
2024-05-09T13:34:40.629Z,3.32
2024-05-09T13:44:46.739Z,3.63
2024-05-09T13:54:52.928Z,11.25
2024-05-09T14:04:59.066Z,16.67
2024-05-09T14:15:05.166Z,11.18
2024-05-09T14:25:11.460Z,7.44
2024-05-09T14:35:17.442Z,5.07
2024-05-09T14:45:23.595Z,4.17
2024-05-09T14:55:29.737Z,4.09
2024-05-09T15:05:35.883Z,3.78
2024-05-09T15:15:42.016Z,3.23
2024-05-09T15:25:48.127Z,2.79
2024-05-09T15:35:54.343Z,2.85
2024-05-09T15:46:00.497Z,2.83
2024-05-09T15:56:06.560Z,3.2
2024-05-09T16:06:12.688Z,3.03
2024-05-09T16:16:18.918Z,2.77
2024-05-09T16:26:24.975Z,2.71
2024-05-09T16:36:31.148Z,2.87
2024-05-09T16:46:37.266Z,2.82
2024-05-09T16:56:43.389Z,2.73
2024-05-09T17:06:49.522Z,3.06
2024-05-09T17:16:55.742Z,3.1
2024-05-09T17:27:01.810Z,2.57
2024-05-09T17:37:07.971Z,2.77
2024-05-09T17:47:14.106Z,3.37
2024-05-09T17:57:20.235Z,2.57
2024-05-09T18:07:26.393Z,2.91
2024-05-09T18:17:32.573Z,2.92
2024-05-09T18:27:38.651Z,2.87
2024-05-09T18:37:44.789Z,2.82
2024-05-09T18:47:50.960Z,3.66
2024-05-09T18:57:57.113Z,2.71
2024-05-09T19:08:03.217Z,3.28
2024-05-09T19:18:09.671Z,3
2024-05-09T19:28:15.501Z,3.12
2024-05-09T19:38:21.649Z,3.85
2024-05-09T19:48:27.824Z,3.46
2024-05-09T19:58:34.026Z,6.87
2024-05-09T20:08:40.042Z,5.98
2024-05-09T20:18:46.333Z,4.84
2024-05-09T20:28:52.318Z,4.03
2024-05-09T20:38:58.470Z,3.68
2024-05-09T20:49:04.726Z,3.64
2024-05-09T20:59:10.761Z,3.2
2024-05-09T21:09:16.889Z,3.04
2024-05-09T21:19:23.030Z,3.53
2024-05-09T21:29:29.156Z,2.89
2024-05-09T21:39:35.320Z,2.83
2024-05-09T21:49:41.486Z,2.65
2024-05-09T21:59:47.573Z,2.56
2024-05-09T22:09:53.714Z,2.27
2024-05-09T22:19:59.861Z,2.65
2024-05-09T22:30:09.032Z,2
2024-05-09T22:40:15.055Z,2.25
2024-05-09T22:50:22.729Z,2.28
2024-05-09T23:10:34.626Z,2.06
2024-05-09T23:20:38.085Z,2
2024-05-09T23:30:42.935Z,2.7
2024-05-09T23:40:49.025Z,2.37
2024-05-09T23:50:55.141Z,1.99
